Time;durP1;ratioP1;P1;durP2;ratioP2;P2;SDS_P1;SDS_P2;PMS_P1;PMS_P2;Temp;Humidity;BMP_temperature;BMP_pressure;BME280_temperature;BME280_humidity;BME280_pressure;Samples;Min_cycle;Max_cycle;Signal;HPM_P1;HPM_P2
2021/04/06 00:00:42;;;;;;;6.15;4.55;;;;;;;14.73;53.94;98401.63;1725920;82;21373;-70
2021/04/06 00:03:13;;;;;;;5.92;5.30;;;;;;;14.73;53.88;98403.48;1711702;82;21735;-72
2021/04/06 00:05:42;;;;;;;8.18;5.28;;;;;;;14.73;53.86;98400.81;1728267;82;21151;-70
2021/04/06 00:08:11;;;;;;;5.90;5.30;;;;;;;14.72;53.84;98400.01;1730577;82;21187;-70
2021/04/06 00:10:42;;;;;;;7.55;5.58;;;;;;;14.72;53.84;98401.88;1703734;82;21187;-71
2021/04/06 00:13:09;;;;;;;6.22;5.62;;;;;;;14.71;53.78;98407.72;1698833;82;21218;-70
2021/04/06 00:15:38;;;;;;;6.30;5.50;;;;;;;14.71;53.76;98407.72;1727141;82;21627;-67
2021/04/06 00:18:08;;;;;;;6.78;5.50;;;;;;;14.71;53.70;98406.91;1727949;82;21142;-68
2021/04/06 00:20:38;;;;;;;5.95;5.15;;;;;;;14.70;53.64;98406.10;1719553;82;21156;-68
2021/04/06 00:23:07;;;;;;;7.00;5.12;;;;;;;14.69;53.68;98404.45;1736264;82;21204;-69
2021/04/06 00:25:38;;;;;;;5.75;5.15;;;;;;;14.69;53.59;98395.11;1719666;82;21212;-68
2021/04/06 00:28:11;;;;;;;5.80;5.17;;;;;;;14.69;53.49;98398.30;1724027;82;25064;-68
2021/04/06 00:30:38;;;;;;;7.53;5.67;;;;;;;14.69;53.48;98394.30;1727214;82;21158;-68
2021/04/06 00:33:13;;;;;;;6.83;5.75;;;;;;;14.68;53.43;98387.31;1710859;82;21151;-68
2021/04/06 00:35:44;;;;;;;5.78;5.15;;;;;;;14.67;53.44;98383.83;1687988;83;21213;-69
2021/04/06 00:38:12;;;;;;;5.53;4.78;;;;;;;14.65;53.46;98385.11;1681911;83;21466;-68
2021/04/06 00:40:49;;;;;;;5.92;5.10;;;;;;;14.66;53.43;98374.69;1732030;82;21152;-69
2021/04/06 00:43:17;;;;;;;6.00;5.12;;;;;;;14.65;53.40;98384.58;1730968;82;21195;-67
2021/04/06 00:45:47;;;;;;;5.95;5.12;;;;;;;14.64;53.35;98386.13;1723297;82;21219;-67
2021/04/06 00:48:19;;;;;;;5.85;4.58;;;;;;;14.61;53.33;98379.40;1732192;82;21191;-71
2021/04/06 00:51:11;;;;;;;6.97;5.62;;;;;;;14.62;53.31;98370.35;1728203;82;21435;-70
2021/04/06 00:54:02;;;;;;;6.62;5.03;;;;;;;14.60;53.28;98384.44;1725169;82;21131;-70
2021/04/06 00:56:35;;;;;;;8.40;6.58;;;;;;;14.58;53.31;98378.50;1727939;82;21168;-69
2021/04/06 00:59:08;;;;;;;8.48;5.58;;;;;;;14.57;53.26;98380.90;1724502;82;21616;-70
2021/04/06 01:01:47;;;;;;;8.63;5.97;;;;;;;14.55;53.25;98377.61;1722863;82;22350;-70
2021/04/06 01:04:17;;;;;;;6.47;4.80;;;;;;;14.55;53.24;98383.76;1716472;82;21218;-70
2021/04/06 01:07:14;;;;;;;7.05;5.37;;;;;;;14.53;53.24;98382.36;1723216;82;21204;-70
2021/04/06 01:09:54;;;;;;;6.92;6.00;;;;;;;14.52;53.20;98377.52;1684957;82;21180;-69
2021/04/06 01:12:27;;;;;;;6.70;5.40;;;;;;;14.50;53.22;98382.28;1698839;82;21620;-69
2021/04/06 01:14:57;;;;;;;7.00;5.65;;;;;;;14.49;53.25;98387.88;1706438;82;21153;-68
2021/04/06 01:17:32;;;;;;;7.17;6.10;;;;;;;14.48;53.23;98395.05;1723650;82;21272;-70
2021/04/06 01:20:12;;;;;;;8.50;5.60;;;;;;;14.47;53.19;98376.59;1714906;82;21177;-68
2021/04/06 01:22:39;;;;;;;6.08;5.47;;;;;;;14.46;53.16;98383.78;1710972;82;21191;-69
2021/04/06 01:25:19;;;;;;;6.92;5.55;;;;;;;14.46;53.12;98382.44;1708010;82;21220;-68
2021/04/06 01:27:49;;;;;;;6.97;5.78;;;;;;;14.46;53.15;98378.44;1713794;82;21643;-70
2021/04/06 01:30:22;;;;;;;7.47;5.75;;;;;;;14.46;53.10;98374.95;1716446;82;21201;-71
2021/04/06 01:32:47;;;;;;;6.28;5.20;;;;;;;14.45;53.10;98371.48;1726848;82;21192;-70
2021/04/06 01:35:16;;;;;;;5.90;5.08;;;;;;;14.45;53.10;98375.48;1714134;82;21167;-69
2021/04/06 01:37:43;;;;;;;8.30;5.72;;;;;;;14.45;53.09;98378.69;1716512;82;21180;-69
2021/04/06 01:40:13;;;;;;;7.53;6.03;;;;;;;14.44;53.05;98377.84;1715687;82;21424;-70
2021/04/06 01:42:46;;;;;;;6.85;5.45;;;;;;;14.45;53.03;98372.00;1710183;82;21219;-69
2021/04/06 01:45:16;;;;;;;6.83;5.47;;;;;;;14.43;53.01;98373.56;1713127;82;21179;-70
2021/04/06 01:47:44;;;;;;;6.87;5.97;;;;;;;14.42;52.99;98371.91;1712344;82;21112;-69
2021/04/06 01:50:12;;;;;;;7.45;5.40;;;;;;;14.43;53.00;98375.39;1715937;82;21204;-69
2021/04/06 01:52:42;;;;;;;5.97;5.35;;;;;;;14.42;53.01;98375.92;1711076;81;21590;-69
2021/04/06 01:55:16;;;;;;;7.00;5.28;;;;;;;14.41;53.03;98384.16;1678874;82;22132;-71
2021/04/06 01:57:43;;;;;;;6.37;5.67;;;;;;;14.41;53.01;98385.49;1706129;82;21159;-71
2021/04/06 02:00:22;;;;;;;6.92;5.78;;;;;;;14.40;52.94;98387.36;1718133;82;21176;-71
2021/04/06 02:02:42;;;;;;;6.73;5.50;;;;;;;14.39;52.90;98373.72;1694651;82;21658;-70
2021/04/06 02:05:12;;;;;;;7.42;5.75;;;;;;;14.39;52.90;98376.39;1704272;82;21183;-71
2021/04/06 02:07:43;;;;;;;6.30;5.42;;;;;;;14.39;52.89;98372.88;1684760;82;21181;-70
2021/04/06 02:10:11;;;;;;;6.45;5.65;;;;;;;14.39;52.87;98371.55;1715207;82;21163;-70
2021/04/06 02:12:44;;;;;;;7.58;6.25;;;;;;;14.37;52.90;98367.79;1713284;82;21183;-70
2021/04/06 02:15:13;;;;;;;5.83;5.22;;;;;;;14.36;52.91;98364.28;1709379;82;21112;-69
2021/04/06 02:17:51;;;;;;;6.28;5.40;;;;;;;14.36;52.90;98375.50;1712726;82;21145;-70
2021/04/06 02:20:22;;;;;;;6.60;5.65;;;;;;;14.35;52.89;98372.02;1721490;82;21399;-70
2021/04/06 02:23:02;;;;;;;8.88;6.15;;;;;;;14.34;52.92;98364.22;1710421;82;21175;-70
2021/04/06 02:25:33;;;;;;;6.78;5.30;;;;;;;14.33;52.90;98351.89;1709644;82;21191;-70
2021/04/06 02:28:00;;;;;;;7.20;5.58;;;;;;;14.32;52.86;98351.09;1717958;82;21141;-72
2021/04/06 02:30:30;;;;;;;7.00;6.17;;;;;;;14.32;52.85;98352.95;1711164;82;21140;-70
2021/04/06 02:33:02;;;;;;;7.87;6.60;;;;;;;14.32;52.84;98355.63;1724593;82;21441;-70
2021/04/06 02:35:29;;;;;;;6.22;5.47;;;;;;;14.31;52.84;98357.48;1722532;82;21697;-69
2021/04/06 02:37:58;;;;;;;6.70;6.00;;;;;;;14.31;52.85;98358.82;1710303;82;21164;-70
2021/04/06 02:40:27;;;;;;;6.80;5.55;;;;;;;14.31;52.82;98356.65;1704737;82;21200;-69
2021/04/06 02:42:57;;;;;;;7.08;5.87;;;;;;;14.30;52.79;98365.19;1705616;82;21167;-69
2021/04/06 02:45:29;;;;;;;6.58;5.90;;;;;;;14.30;52.80;98371.06;1721880;82;21251;-71
2021/04/06 02:48:09;;;;;;;6.53;5.37;;;;;;;14.30;52.76;98359.84;1719039;82;21203;-70
2021/04/06 02:50:35;;;;;;;7.55;6.08;;;;;;;14.30;52.78;98367.86;1710010;82;21180;-71
2021/04/06 02:53:10;;;;;;;7.72;5.83;;;;;;;14.29;52.76;98366.25;1708169;81;21188;-70
2021/04/06 02:55:39;;;;;;;7.25;6.05;;;;;;;14.28;52.74;98361.94;1713569;82;21187;-71
2021/04/06 02:58:14;;;;;;;6.70;6.10;;;;;;;14.27;52.74;98364.83;1663701;85;22001;-70
2021/04/06 03:00:42;;;;;;;6.10;5.50;;;;;;;14.27;52.77;98363.48;1712768;82;21189;-70
2021/04/06 03:03:24;;;;;;;6.15;5.25;;;;;;;14.27;52.79;98360.81;1706420;83;21176;-71
2021/04/06 03:06:07;;;;;;;8.08;6.08;;;;;;;14.25;52.80;98359.70;1692029;83;21537;-70
2021/04/06 03:08:36;;;;;;;6.72;6.00;;;;;;;14.24;52.82;98348.73;1714813;82;21185;-71
2021/04/06 03:11:05;;;;;;;7.12;6.40;;;;;;;14.23;52.77;98348.42;1718481;82;21449;-72
2021/04/06 03:13:33;;;;;;;6.97;5.78;;;;;;;14.22;52.78;98345.48;1713194;82;21199;-70
2021/04/06 03:16:04;;;;;;;8.50;6.65;;;;;;;14.23;52.78;98356.44;1711442;82;21201;-71
2021/04/06 03:18:40;;;;;;;8.48;6.35;;;;;;;14.23;52.79;98364.98;1716328;82;22136;-70
2021/04/06 03:21:10;;;;;;;7.58;5.95;;;;;;;14.22;52.73;98367.38;1717456;82;21081;-69
2021/04/06 03:23:38;;;;;;;8.50;6.55;;;;;;;14.21;52.72;98367.88;1715278;82;21364;-68
2021/04/06 03:26:07;;;;;;;7.17;5.85;;;;;;;14.21;52.71;98367.06;1706052;82;21231;-69
2021/04/06 03:28:39;;;;;;;6.37;5.70;;;;;;;14.21;52.71;98365.73;1709319;82;21239;-69
2021/04/06 03:31:20;;;;;;;7.30;5.78;;;;;;;14.19;52.63;98371.29;1693006;83;21187;-69
2021/04/06 03:33:48;;;;;;;6.83;6.10;;;;;;;14.21;52.62;98377.75;1710577;82;21633;-69
2021/04/06 03:36:29;;;;;;;6.75;5.67;;;;;;;14.19;52.59;98372.63;1722038;82;21168;-71
2021/04/06 03:39:05;;;;;;;6.42;5.70;;;;;;;14.18;52.59;98375.02;1718087;82;21144;-68
2021/04/06 03:41:33;;;;;;;7.08;5.97;;;;;;;14.18;52.56;98377.69;1682893;84;21210;-69
2021/04/06 03:44:12;;;;;;;6.92;5.72;;;;;;;14.18;52.55;98376.35;1709324;82;21195;-69
2021/04/06 03:46:42;;;;;;;6.70;5.75;;;;;;;14.18;52.54;98372.34;1715933;82;21133;-69
2021/04/06 03:49:24;;;;;;;7.30;5.97;;;;;;;14.18;52.56;98372.34;1715195;82;21387;-69
2021/04/06 03:52:04;;;;;;;7.10;6.08;;;;;;;14.17;52.54;98377.37;1719624;82;21108;-69
2021/04/06 03:54:47;;;;;;;7.75;5.85;;;;;;;14.16;52.56;98373.90;1719167;82;21178;-69
2021/04/06 03:57:46;;;;;;;7.63;6.20;;;;;;;14.15;52.58;98370.92;1718377;82;21192;-70
2021/04/06 04:00:09;;;;;;;6.92;6.12;;;;;;;14.09;52.59;98369.16;1712527;82;21161;-69
2021/04/06 04:02:37;;;;;;;7.25;6.53;;;;;;;14.13;52.64;98377.01;1710732;82;22290;-70
2021/04/06 04:05:06;;;;;;;6.97;5.87;;;;;;;14.12;52.61;98377.26;1716320;82;21324;-69
2021/04/06 04:07:36;;;;;;;7.55;6.25;;;;;;;14.12;52.60;98375.39;1718042;82;21643;-70
2021/04/06 04:10:07;;;;;;;6.65;5.92;;;;;;;14.14;52.60;98377.84;1712579;82;21754;-69
2021/04/06 04:12:34;;;;;;;7.37;6.60;;;;;;;14.12;52.46;98369.25;1727179;82;21101;-71
2021/04/06 04:15:06;;;;;;;7.40;6.70;;;;;;;14.13;52.48;98375.67;1703879;82;21270;-70
2021/04/06 04:17:34;;;;;;;8.33;6.15;;;;;;;14.14;52.46;98380.52;1719261;82;21188;-69
2021/04/06 04:20:10;;;;;;;7.45;6.53;;;;;;;14.14;52.38;98376.52;1709442;82;21134;-70
2021/04/06 04:22:37;;;;;;;6.70;6.03;;;;;;;14.15;52.51;98382.12;1723505;82;21227;-69
2021/04/06 04:25:09;;;;;;;7.50;6.05;;;;;;;14.15;52.37;98388.81;1719700;82;21156;-69
2021/04/06 04:27:37;;;;;;;6.83;5.90;;;;;;;14.14;52.36;98389.34;1708512;82;21605;-70
2021/04/06 04:30:07;;;;;;;7.58;6.55;;;;;;;14.15;52.42;98393.63;1708802;82;21196;-70
2021/04/06 04:32:36;;;;;;;7.45;6.12;;;;;;;14.15;52.40;98390.14;1714430;82;21211;-70
2021/04/06 04:35:05;;;;;;;8.60;6.60;;;;;;;14.16;52.19;98385.92;1707492;83;21144;-69
2021/04/06 04:37:33;;;;;;;8.53;6.87;;;;;;;14.17;52.20;98388.06;1711554;82;21204;-69
2021/04/06 04:40:04;;;;;;;7.30;5.95;;;;;;;14.17;52.21;98381.38;1712856;82;21437;-70
2021/04/06 04:42:35;;;;;;;7.10;6.40;;;;;;;14.18;52.13;98383.03;1703026;82;21653;-70
2021/04/06 04:45:06;;;;;;;6.35;5.70;;;;;;;14.19;52.26;98383.84;1714652;82;21211;-69
2021/04/06 04:47:33;;;;;;;8.63;6.15;;;;;;;14.19;52.25;98386.51;1725611;82;21231;-70
2021/04/06 04:50:00;;;;;;;8.43;6.55;;;;;;;14.19;52.30;98383.84;1715552;82;21200;-69
2021/04/06 04:52:28;;;;;;;6.70;6.00;;;;;;;14.20;52.16;98384.11;1716583;82;22883;-68
2021/04/06 04:54:56;;;;;;;7.92;6.62;;;;;;;14.20;52.05;98387.63;1714001;82;21168;-69
2021/04/06 04:57:23;;;;;;;7.12;6.17;;;;;;;14.21;52.00;98389.23;1722566;82;21164;-70
2021/04/06 04:59:51;;;;;;;7.28;6.22;;;;;;;14.22;51.90;98394.89;1703483;82;21170;-70
2021/04/06 05:02:18;;;;;;;6.60;5.97;;;;;;;14.22;51.77;98385.55;1709317;83;21146;-70
2021/04/06 05:04:45;;;;;;;8.40;6.28;;;;;;;14.23;51.71;98395.17;1700448;83;21344;-70
2021/04/06 05:07:13;;;;;;;7.35;5.97;;;;;;;14.24;51.59;98400.82;1712983;83;21199;-71
2021/04/06 05:09:41;;;;;;;8.50;6.50;;;;;;;14.24;51.58;98394.14;1705153;83;21147;-70
2021/04/06 05:12:09;;;;;;;6.92;5.95;;;;;;;14.27;51.64;98408.37;1722693;83;21154;-69
2021/04/06 05:14:36;;;;;;;9.13;6.90;;;;;;;14.27;51.60;98408.37;1711569;83;22383;-70
2021/04/06 05:17:04;;;;;;;7.08;5.85;;;;;;;14.29;51.55;98405.48;1694172;83;21391;-69
2021/04/06 05:19:31;;;;;;;7.25;5.87;;;;;;;14.30;51.48;98397.25;1710099;83;21181;-70
2021/04/06 05:21:59;;;;;;;6.78;6.08;;;;;;;14.32;51.37;98395.16;1713947;83;21223;-70
2021/04/06 05:24:26;;;;;;;9.70;6.22;;;;;;;14.33;51.29;98390.13;1723953;83;21166;-69
2021/04/06 05:26:54;;;;;;;7.45;6.05;;;;;;;14.35;51.18;98392.55;1720416;83;22399;-70
2021/04/06 05:29:21;;;;;;;8.23;6.12;;;;;;;14.38;51.07;98385.44;1710354;83;21198;-69
2021/04/06 05:31:49;;;;;;;8.90;7.15;;;;;;;14.39;51.02;98379.06;1707318;83;21197;-70
2021/04/06 05:34:16;;;;;;;6.83;5.83;;;;;;;14.39;51.03;98380.90;1723670;83;21182;-69
2021/04/06 05:36:43;;;;;;;7.58;6.03;;;;;;;14.45;51.18;98386.70;1717400;83;21190;-70
2021/04/06 05:39:11;;;;;;;7.05;6.33;;;;;;;14.46;51.15;98386.45;1723726;83;21162;-70
2021/04/06 05:41:44;;;;;;;9.05;6.10;;;;;;;14.49;51.23;98387.88;1708695;82;21100;-70
2021/04/06 05:44:11;;;;;;;7.80;6.53;;;;;;;14.51;51.24;98387.13;1713434;83;21146;-73
2021/04/06 05:46:43;;;;;;;8.40;6.60;;;;;;;14.54;51.27;98389.33;1705875;83;21261;-71
2021/04/06 05:49:13;;;;;;;11.38;6.70;;;;;;;14.56;51.39;98392.59;1710341;82;21221;-69
2021/04/06 05:51:43;;;;;;;7.35;6.25;;;;;;;14.59;51.43;98394.04;1716658;83;21570;-69
2021/04/06 05:54:13;;;;;;;8.80;6.78;;;;;;;14.61;51.48;98383.41;1705149;83;21270;-71
2021/04/06 05:56:40;;;;;;;6.97;6.28;;;;;;;14.64;51.50;98382.97;1716906;83;21150;-70
2021/04/06 05:59:08;;;;;;;7.33;6.22;;;;;;;14.68;51.54;98391.31;1717441;83;21611;-69
2021/04/06 06:01:42;;;;;;;7.92;6.53;;;;;;;14.72;51.52;98390.66;1709448;82;21175;-71
2021/04/06 06:04:17;;;;;;;9.48;6.42;;;;;;;14.74;51.50;98385.89;1721000;82;21159;-71
2021/04/06 06:06:45;;;;;;;9.25;6.85;;;;;;;14.79;51.46;98385.72;1712353;82;21418;-70
2021/04/06 06:09:13;;;;;;;7.87;6.22;;;;;;;14.84;51.41;98388.53;1707693;82;21187;-70
2021/04/06 06:12:13;;;;;;;8.40;6.08;;;;;;;14.87;51.44;98390.73;1732719;82;21192;-71
2021/04/06 06:14:42;;;;;;;10.18;6.85;;;;;;;14.90;51.45;98388.95;1711437;82;21636;-71
2021/04/06 06:17:19;;;;;;;6.78;5.92;;;;;;;14.94;51.46;98402.16;1672977;84;22274;-71
2021/04/06 06:19:52;;;;;;;7.60;6.25;;;;;;;14.98;51.50;98395.83;1669373;84;21212;-71
2021/04/06 06:22:23;;;;;;;8.85;6.78;;;;;;;15.01;51.47;98399.36;1678269;85;21245;-69
2021/04/06 06:25:03;;;;;;;6.08;5.45;;;;;;;15.04;51.65;98398.92;1674159;85;21195;-66
2021/04/06 06:27:41;;;;;;;7.72;6.22;;;;;;;15.08;51.71;98395.54;1677724;85;21220;-66
2021/04/06 06:30:38;;;;;;;6.92;6.12;;;;;;;15.12;51.83;98399.91;1677345;85;21308;-68
2021/04/06 06:33:23;;;;;;;8.48;6.10;;;;;;;15.16;51.87;98402.95;1663889;85;22292;-67
2021/04/06 06:35:59;;;;;;;7.42;6.17;;;;;;;15.18;52.06;98413.70;1667767;85;21219;-66
2021/04/06 06:38:34;;;;;;;7.35;5.60;;;;;;;15.22;52.23;98417.57;1670505;85;21149;-68
2021/04/06 06:41:18;;;;;;;7.17;6.45;;;;;;;15.25;52.26;98419.77;1672274;85;21207;-65
2021/04/06 06:43:48;;;;;;;;;;;;;;;15.29;52.36;98419.59;1681132;85;21156;-66
2021/04/06 06:46:29;;;;;;;8.23;6.03;;;;;;;15.34;52.41;98424.27;1640653;86;21254;-68
2021/04/06 06:49:01;;;;;;;7.45;5.95;;;;;;;15.30;52.47;98420.43;1676107;85;21184;-65
2021/04/06 06:51:32;;;;;;;7.92;5.87;;;;;;;15.34;52.57;98426.95;1674594;85;25729;-66
2021/04/06 06:53:59;;;;;;;9.60;6.95;;;;;;;15.39;52.43;98427.58;1667071;85;21232;-69
2021/04/06 06:56:36;;;;;;;7.12;6.40;;;;;;;15.43;52.57;98422.05;1677923;85;21210;-66
2021/04/06 06:59:04;;;;;;;10.00;6.75;;;;;;;15.48;52.57;98434.22;1716900;82;21209;-67
2021/04/06 07:01:34;;;;;;;7.22;6.25;;;;;;;15.51;52.41;98433.23;1722222;81;21586;-67
2021/04/06 07:04:09;;;;;;;7.65;6.35;;;;;;;15.56;52.39;98427.71;1718736;82;21534;-67
2021/04/06 07:06:43;;;;;;;8.13;6.17;;;;;;;15.59;52.28;98424.05;1726400;82;21135;-67
2021/04/06 07:09:26;;;;;;;10.50;6.20;;;;;;;15.63;52.31;98419.86;1736852;82;21160;-68
2021/04/06 07:12:03;;;;;;;6.78;5.67;;;;;;;15.67;52.40;98420.21;1727933;82;21511;-66
2021/04/06 07:14:33;;;;;;;6.85;5.95;;;;;;;15.69;52.40;98416.77;1722879;82;21124;-67
2021/04/06 07:17:07;;;;;;;6.17;5.58;;;;;;;15.73;52.42;98419.30;1724086;80;21195;-67
2021/04/06 07:19:44;;;;;;;7.33;5.97;;;;;;;15.76;52.38;98417.51;1735745;82;21181;-69
2021/04/06 07:22:13;;;;;;;9.58;6.17;;;;;;;15.81;52.42;98419.47;1722629;82;21533;-67
2021/04/06 07:24:41;;;;;;;7.28;6.45;;;;;;;15.82;52.26;98424.59;1725185;80;21328;-67
2021/04/06 07:27:14;;;;;;;6.60;5.95;;;;;;;15.86;52.32;98425.75;1735513;80;21198;-67
2021/04/06 07:29:42;;;;;;;7.60;6.78;;;;;;;15.89;52.35;98423.92;1722996;82;21625;-65
2021/04/06 07:32:11;;;;;;;6.95;5.75;;;;;;;15.92;52.33;98427.48;1728242;82;21237;-67
2021/04/06 07:34:39;;;;;;;6.95;5.72;;;;;;;15.97;52.20;98427.30;1733233;82;21128;-67
2021/04/06 07:37:07;;;;;;;7.25;5.25;;;;;;;16.00;52.23;98424.17;1726929;82;21370;-66
2021/04/06 07:39:34;;;;;;;8.75;6.45;;;;;;;16.03;52.25;98431.21;1724482;82;21205;-66
2021/04/06 07:42:02;;;;;;;8.33;5.67;;;;;;;16.05;52.09;98429.61;1730623;82;21172;-68
2021/04/06 07:44:35;;;;;;;6.70;5.72;;;;;;;16.07;52.20;98422.16;1730389;82;21202;-68
2021/04/06 07:47:02;;;;;;;8.03;5.83;;;;;;;16.10;52.16;98431.07;1718322;82;21202;-65
2021/04/06 07:49:38;;;;;;;8.25;5.75;;;;;;;16.12;52.15;98430.31;1726780;82;21309;-67
2021/04/06 07:52:18;;;;;;;7.67;5.55;;;;;;;16.17;52.05;98434.95;1727109;82;21201;-68
2021/04/06 07:54:48;;;;;;;7.37;6.03;;;;;;;16.19;52.10;98430.20;1717986;82;21155;-69
2021/04/06 07:57:15;;;;;;;6.97;6.28;;;;;;;16.21;52.01;98426.22;1733887;82;21192;-67
2021/04/06 07:59:52;;;;;;;6.58;4.85;;;;;;;16.25;52.03;98429.23;1730086;82;21182;-70
2021/04/06 08:02:25;;;;;;;6.72;5.45;;;;;;;16.27;51.91;98431.96;1730322;82;22285;-69
2021/04/06 08:04:56;;;;;;;6.95;6.25;;;;;;;16.31;51.79;98437.13;1744365;82;21172;-66
2021/04/06 08:07:33;;;;;;;6.30;5.58;;;;;;;16.35;51.75;98438.02;1726617;82;21131;-69
2021/04/06 08:10:19;;;;;;;7.72;6.37;;;;;;;16.37;51.57;98433.23;1739944;82;21143;-72
2021/04/06 08:12:48;;;;;;;6.53;5.42;;;;;;;16.40;51.57;98442.95;1726205;82;21567;-69
2021/04/06 08:15:19;;;;;;;6.75;5.70;;;;;;;16.43;51.45;98444.33;1719405;82;21580;-69
2021/04/06 08:17:50;;;;;;;6.67;5.47;;;;;;;16.45;51.25;98443.56;1727493;82;21608;-69
2021/04/06 08:20:25;;;;;;;6.58;5.75;;;;;;;16.50;51.14;98444.48;1727668;82;21131;-70
2021/04/06 08:23:07;;;;;;;7.67;6.15;;;;;;;16.53;50.99;98441.84;1725846;82;21191;-67
2021/04/06 08:25:38;;;;;;;8.53;6.62;;;;;;;16.56;50.84;98435.20;1729370;82;21211;-66
2021/04/06 08:28:29;;;;;;;7.72;6.03;;;;;;;16.59;50.92;98443.59;1719099;82;22083;-67
2021/04/06 08:31:23;;;;;;;6.50;5.58;;;;;;;16.61;50.67;98432.10;1730720;82;21231;-65
2021/04/06 08:33:51;;;;;;;7.65;5.12;;;;;;;16.65;50.64;98426.55;1727460;82;21213;-65
2021/04/06 08:36:25;;;;;;;7.60;6.20;;;;;;;16.67;50.57;98431.14;1721417;82;21111;-66
2021/04/06 08:38:54;;;;;;;6.40;5.28;;;;;;;16.71;50.48;98432.81;1727942;82;21195;-69
2021/04/06 08:41:31;;;;;;;6.90;6.20;;;;;;;16.75;50.36;98431.81;1724671;82;21232;-70
2021/04/06 08:44:04;;;;;;;6.50;5.65;;;;;;;16.78;50.23;98432.13;1721813;82;21208;-69
2021/04/06 08:46:42;;;;;;;6.15;5.47;;;;;;;16.83;50.17;98439.50;1728727;80;21694;-68
2021/04/06 08:49:24;;;;;;;7.12;5.60;;;;;;;16.87;50.09;98436.08;1724336;82;21187;-70
2021/04/06 08:51:59;;;;;;;5.85;5.25;;;;;;;16.91;50.07;98423.01;1723828;80;21148;-68
2021/04/06 08:54:32;;;;;;;7.05;5.42;;;;;;;16.96;49.94;98424.95;1721301;80;21326;-68
2021/04/06 08:57:07;;;;;;;5.80;5.20;;;;;;;16.99;49.95;98415.09;1692997;82;28298;-67
2021/04/06 08:59:39;;;;;;;5.25;4.75;;;;;;;17.04;49.92;98409.29;1723074;80;21214;-68
2021/04/06 09:02:10;;;;;;;5.85;4.87;;;;;;;17.02;49.91;98397.18;1722078;82;21211;-68
2021/04/06 09:04:47;;;;;;;6.37;4.78;;;;;;;17.16;49.82;98421.28;1718702;80;21171;-66
2021/04/06 09:07:23;;;;;;;6.67;5.72;;;;;;;17.21;49.76;98412.49;1718938;82;22040;-69
2021/04/06 09:09:57;;;;;;;5.33;4.78;;;;;;;17.28;49.78;98418.52;1725425;80;21639;-68
2021/04/06 09:12:24;;;;;;;6.17;4.58;;;;;;;17.32;49.75;98407.58;1726611;82;21151;-67
2021/04/06 09:14:53;;;;;;;6.03;4.72;;;;;;;17.39;49.74;98405.55;1723879;82;21160;-68
2021/04/06 09:17:27;;;;;;;5.87;5.00;;;;;;;17.47;49.69;98409.70;1721762;82;21175;-66
2021/04/06 09:19:55;;;;;;;5.35;4.85;;;;;;;17.54;49.67;98398.77;1723693;82;21273;-67
2021/04/06 09:22:23;;;;;;;5.62;4.70;;;;;;;17.62;49.64;98401.06;1719296;82;21534;-67
2021/04/06 09:24:50;;;;;;;5.03;4.15;;;;;;;17.69;49.55;98397.65;1720062;82;21203;-65
2021/04/06 09:27:17;;;;;;;5.60;4.70;;;;;;;17.78;49.60;98407.45;1723567;82;21223;-67
2021/04/06 09:29:47;;;;;;;5.95;5.12;;;;;;;17.86;49.66;98400.34;1718724;82;21168;-65
2021/04/06 09:32:19;;;;;;;5.58;4.42;;;;;;;17.95;49.46;98404.77;1723254;80;21267;-65
2021/04/06 09:34:49;;;;;;;6.67;5.50;;;;;;;18.03;49.55;98396.27;1716592;82;21666;-67
2021/04/06 09:37:21;;;;;;;5.58;4.58;;;;;;;18.11;49.55;98405.77;1723839;82;21667;-66
2021/04/06 09:39:51;;;;;;;4.85;4.30;;;;;;;18.19;49.54;98407.47;1723031;82;21234;-68
2021/04/06 09:42:19;;;;;;;4.70;4.20;;;;;;;18.29;49.47;98402.75;1726325;82;21219;-68
2021/04/06 09:44:48;;;;;;;5.62;5.00;;;;;;;18.37;49.38;98398.80;1723520;82;21840;-69
2021/04/06 09:47:19;;;;;;;6.22;5.10;;;;;;;18.47;49.39;98394.91;1726849;82;21218;-69
2021/04/06 09:49:49;;;;;;;5.00;4.50;;;;;;;18.56;49.38;98393.91;1727734;80;22129;-70
2021/04/06 09:52:23;;;;;;;4.65;4.03;;;;;;;18.64;49.31;98394.81;1733673;82;21174;-70
2021/04/06 09:55:00;;;;;;;5.05;4.55;;;;;;;18.72;49.26;98401.08;1733842;82;21126;-67
2021/04/06 09:57:37;;;;;;;4.80;4.30;;;;;;;18.80;49.18;98403.34;1725010;80;21215;-70
2021/04/06 10:00:11;;;;;;;5.50;4.47;;;;;;;18.88;48.88;98391.30;1727443;80;21186;-67
2021/04/06 10:02:39;;;;;;;4.72;4.20;;;;;;;18.93;48.69;98403.47;1732149;81;21212;-70
2021/04/06 10:05:19;;;;;;;6.10;4.50;;;;;;;18.98;48.55;98390.03;1731926;82;21180;-68
2021/04/06 10:07:48;;;;;;;4.65;3.98;;;;;;;19.02;48.55;98392.49;1733453;82;21201;-67
2021/04/06 10:10:26;;;;;;;4.87;4.37;;;;;;;19.06;48.58;98386.06;1731605;82;21271;-68
2021/04/06 10:12:54;;;;;;;5.05;4.53;;;;;;;19.11;48.57;98385.31;1728865;82;21200;-65
2021/04/06 10:17:19;;;;;;;5.22;4.08;;;;;;;19.29;48.86;98374.13;1875284;75;22569;-69
2021/04/06 10:20:09;;;;;;;4.40;4.00;;;;;;;19.29;48.98;98376.02;1791757;78;21135;-68
2021/04/06 10:22:49;;;;;;;5.65;4.53;;;;;;;19.38;49.10;98378.52;1814260;78;21577;-70
2021/04/06 10:25:29;;;;;;;4.53;4.08;;;;;;;19.48;49.05;98369.69;1782419;79;21073;-65
2021/04/06 10:27:59;;;;;;;4.35;3.95;;;;;;;19.57;49.01;98355.48;1804053;78;21123;-65
2021/04/06 10:30:40;;;;;;;4.40;4.00;;;;;;;19.67;48.89;98364.15;1812750;78;21204;-65
2021/04/06 10:33:21;;;;;;;4.65;4.17;;;;;;;19.75;48.84;98366.38;1789447;79;21118;-65
2021/04/06 10:35:55;;;;;;;4.42;4.03;;;;;;;19.84;48.66;98372.89;1790067;78;21366;-67
2021/04/06 10:38:29;;;;;;;5.08;3.90;;;;;;;19.91;48.41;98359.71;1784154;80;21188;-66
2021/04/06 10:41:19;;;;;;;4.72;4.00;;;;;;;19.96;48.05;98361.89;1811765;78;21143;-68
2021/04/06 10:43:49;;;;;;;4.67;3.92;;;;;;;20.01;47.91;98359.23;1771011;79;21432;-69
2021/04/06 10:46:22;;;;;;;5.28;4.05;;;;;;;20.06;47.95;98361.13;1788124;78;21196;-68
2021/04/06 10:49:04;;;;;;;5.83;3.50;;;;;;;20.11;47.89;98365.20;1786111;79;21368;-68
2021/04/06 10:51:34;;;;;;;3.67;3.33;;;;;;;20.14;47.81;98360.61;1810215;78;21178;-67
2021/04/06 10:54:10;;;;;;;3.85;3.55;;;;;;;20.15;47.51;98364.94;1808917;78;21202;-64
2021/04/06 10:56:45;;;;;;;4.40;3.80;;;;;;;20.15;47.37;98356.05;1810972;78;21190;-68
2021/04/06 10:59:14;;;;;;;4.22;3.60;;;;;;;20.14;47.23;98359.81;1808127;78;21222;-66
2021/04/06 11:01:47;;;;;;;4.33;3.30;;;;;;;20.12;47.08;98353.87;1794014;78;21201;-67
2021/04/06 11:04:17;;;;;;;4.47;3.87;;;;;;;20.10;47.01;98347.94;1800031;78;21149;-66
2021/04/06 11:06:48;;;;;;;3.87;3.33;;;;;;;20.07;47.03;98345.75;1804290;78;21664;-67
2021/04/06 11:09:20;;;;;;;3.98;3.58;;;;;;;20.03;46.99;98346.84;1801188;78;22297;-68
2021/04/06 11:11:51;;;;;;;4.15;3.67;;;;;;;20.00;47.12;98344.12;1800807;78;21218;-67
2021/04/06 11:14:22;;;;;;;4.87;4.03;;;;;;;19.98;47.17;98342.77;1802818;78;21284;-68
2021/04/06 11:16:50;;;;;;;5.22;4.40;;;;;;;19.94;47.30;98345.72;1804721;78;21235;-69
2021/04/06 11:19:28;;;;;;;4.53;3.95;;;;;;;19.91;47.84;98343.55;1788768;79;21191;-68
2021/04/06 11:22:00;;;;;;;4.65;3.70;;;;;;;19.92;48.23;98346.52;1783481;79;21148;-65
2021/04/06 11:24:30;;;;;;;4.42;4.03;;;;;;;19.91;48.11;98343.00;1786755;79;21595;-67
2021/04/06 11:26:58;;;;;;;4.33;3.92;;;;;;;19.89;47.97;98346.50;1771656;80;21365;-66
2021/04/06 11:29:28;;;;;;;4.45;4.00;;;;;;;19.86;48.13;98348.90;1792026;79;21163;-66
2021/04/06 11:31:59;;;;;;;3.85;3.45;;;;;;;19.82;48.32;98347.30;1751577;79;21149;-66
2021/04/06 11:34:27;;;;;;;4.08;3.60;;;;;;;19.78;48.54;98337.57;1770604;80;21127;-65
2021/04/06 11:36:56;;;;;;;4.50;3.87;;;;;;;19.75;48.71;98336.73;1783309;79;21152;-65
2021/04/06 11:39:33;;;;;;;4.70;4.05;;;;;;;19.72;48.82;98338.63;1787536;79;21438;-66
2021/04/06 11:42:00;;;;;;;6.08;4.03;;;;;;;19.68;48.87;98333.97;1764516;79;21171;-66
2021/04/06 11:44:28;;;;;;;4.55;3.90;;;;;;;19.64;48.85;98335.03;1773688;79;21529;-66
2021/04/06 11:46:57;;;;;;;4.37;3.98;;;;;;;19.60;48.99;98336.62;1835760;77;21119;-65
2021/04/06 11:49:24;;;;;;;4.45;3.60;;;;;;;19.57;49.17;98335.27;1837283;77;21043;-66
2021/04/06 11:51:51;;;;;;;4.25;3.85;;;;;;;19.54;49.48;98329.05;1785689;79;21756;-67
2021/04/06 11:54:21;;;;;;;5.25;4.33;;;;;;;19.51;49.60;98330.10;1746732;80;21226;-67
2021/04/06 11:56:48;;;;;;;4.45;3.77;;;;;;;19.47;49.65;98323.11;1795419;79;21131;-66
2021/04/06 11:59:16;;;;;;;4.47;4.03;;;;;;;19.45;49.46;98321.18;1796246;79;21161;-66